Bao Ning Ling — BRJO — position and weather

sailwx.info

Track history (hours):
 
Tides and Currents Weather Stations Pressure Air Temp Water Temp Dewpoint Dewpoint Depression Visibility Wind Speed Wind Dir Waves Ship Positions

Bao Ning Ling

Last reported at 2018-May-21 03:25 UTC. Time now 2018-May-21 15:14 UTC.
Position N 37°30' E 122°43'.

Length 189 m; draft 11.1 m.

Type: Cargo ship. MMSI: 414778000.

Date/timePositionNaut miles runAvg speedWind from/ knotsBaromVisibWave heightAir tempDewpointWater temp
2018-May-21 03:25N 37°30' E 122°43'16 9.1
2018-May-21 01:41N 37°41' E 122°28'2 9.6
2018-May-21 01:30N 37°42' E 122°26'5 9.9
2018-May-21 01:00N 37°45' E 122°21'510.1
2018-May-21 00:30N 37°48' E 122°16'610.5
2018-May-20 23:56N 37°51' E 122°10'510.9
2018-May-20 23:30N 37°54' E 122°05'611.1
2018-May-20 22:59N 37°58' E 121°60'511.1
2018-May-20 22:30N 38°01' E 121°54'511.2
2018-May-20 22:00N 38°04' E 121°48'611.3
2018-May-20 21:30N 38°07' E 121°42'611.3
2018-May-20 21:00N 38°10' E 121°36'611.3
2018-May-20 20:30N 38°14' E 121°31'611.1
2018-May-20 20:00N 38°17' E 121°25'611.1
2018-May-20 19:30N 38°20' E 121°19'510.9
2018-May-20 19:00N 38°23' E 121°14'611.2
2018-May-20 18:30N 38°26' E 121°08'611.0
2018-May-20 18:00N 38°29' E 121°02'611.2
2018-May-20 17:30N 38°32' E 120°55'711.5
2018-May-20 16:55N 38°38' E 120°50'511.6
2018-May-20 16:30N 38°41' E 120°46'611.8
2018-May-20 15:59N 38°47' E 120°42'612.1
2018-May-20 15:28N 38°52' E 120°39'512.0
2018-May-20 15:00N 38°57' E 120°35'612.2
2018-May-20 14:29N 39°03' E 120°32'  
2018-May-13 12:08N 39°44' E 119°40'0 0.0
2018-May-13 11:53N 39°44' E 119°40'0 0.0
2018-May-13 11:25N 39°44' E 119°40'0 0.0
2018-May-13 10:59N 39°44' E 119°40'0 0.0
2018-May-13 10:17N 39°44' E 119°40'0 0.2
2018-May-13 09:59N 39°44' E 119°40'0 0.0
2018-May-13 08:53N 39°44' E 119°40'0 0.0
2018-May-13 08:26N 39°44' E 119°40'0 0.0
2018-May-13 07:56N 39°44' E 119°40'0 0.1
2018-May-13 07:26N 39°44' E 119°40'0 0.0
2018-May-13 06:56N 39°44' E 119°40'88 6.2
2018-May-12 16:48N 38°17' E 119°55'413.0
2018-May-12 16:29N 38°12' E 119°56'613.0
2018-May-12 16:00N 38°06' E 119°58'713.0
2018-May-12 15:28N 37°60' E 120°00'612.9
2018-May-12 14:59N 37°54' E 120°03'612.7
2018-May-12 14:30N 37°48' E 120°06'612.5
2018-May-12 14:00N 37°43' E 120°10'4 8.9
2018-May-12 13:30N 37°39' E 120°14'3 5.1
2018-May-12 13:01N 37°39' E 120°17'0 0.3
2018-May-12 12:30N 37°39' E 120°17'0 0.0
2018-May-12 12:00N 37°39' E 120°17'0 0.0
2018-May-12 11:30N 37°39' E 120°17'0 0.0
2018-May-12 11:00N 37°39' E 120°17'0 0.0
2018-May-12 10:27N 37°39' E 120°17'0 0.0
2018-May-12 10:00N 37°39' E 120°17'0 0.0
2018-May-12 09:30N 37°39' E 120°17'0 0.0
2018-May-12 08:57N 37°39' E 120°17'0 0.0
2018-May-12 08:30N 37°39' E 120°17'0 0.0
2018-May-12 07:57N 37°39' E 120°17'0 0.0
2018-May-12 07:30N 37°39' E 120°17'0 0.0
2018-May-12 07:00N 37°39' E 120°17'0 0.0
2018-May-12 06:27N 37°39' E 120°17'0 0.0
2018-May-12 05:54N 37°39' E 120°17'0 0.0
2018-May-12 05:21N 37°39' E 120°17'0 0.0
2018-May-12 05:00N 37°39' E 120°17'0 0.0
2018-May-12 04:30N 37°39' E 120°17'0 0.0
2018-May-12 04:00N 37°39' E 120°17'0 0.0
2018-May-12 03:24N 37°39' E 120°17'0 0.0
2018-May-12 02:57N 37°39' E 120°17'0 0.0
2018-May-12 02:21N 37°39' E 120°17'0 0.0
2018-May-12 02:00N 37°39' E 120°17'0 0.0
2018-May-12 01:30N 37°39' E 120°17'0 0.0
2018-May-12 01:00N 37°39' E 120°17'0 0.0
2018-May-12 00:30N 37°39' E 120°17'0 0.0
2018-May-11 23:57N 37°39' E 120°17'0 0.0
2018-May-11 23:27N 37°39' E 120°17'0 0.0
2018-May-11 22:57N 37°39' E 120°17'0 0.0
2018-May-11 22:30N 37°39' E 120°17'0 0.0
2018-May-11 22:00N 37°39' E 120°17'0 0.0
2018-May-11 21:30N 37°39' E 120°17'0 0.0
2018-May-11 21:00N 37°39' E 120°17'0 0.0
2018-May-11 20:30N 37°39' E 120°17'0 0.0
2018-May-11 20:00N 37°39' E 120°17'0 0.0
2018-May-11 19:30N 37°39' E 120°17'0 0.0
2018-May-11 19:00N 37°39' E 120°17'0 0.0
2018-May-11 18:30N 37°39' E 120°17'0 0.0
2018-May-11 18:00N 37°39' E 120°17'0 0.0
2018-May-11 17:30N 37°39' E 120°17'0 0.0
2018-May-11 17:00N 37°39' E 120°17'0 0.0
2018-May-11 16:30N 37°39' E 120°17'0 0.0
2018-May-11 15:57N 37°39' E 120°17'0 0.0
2018-May-11 15:24N 37°39' E 120°17'0 0.0
2018-May-11 15:00N 37°39' E 120°17'0 0.0
2018-May-11 14:30N 37°39' E 120°17'0 0.0
2018-May-11 13:57N 37°39' E 120°17'0 0.0
2018-May-11 13:30N 37°39' E 120°17'0 0.0
2018-May-11 13:00N 37°39' E 120°17'0 0.0
2018-May-11 12:27N 37°39' E 120°17'0 0.0
2018-May-11 12:00N 37°39' E 120°17'0 0.0
2018-May-11 11:30N 37°39' E 120°17'0 0.0
2018-May-11 11:00N 37°39' E 120°17'0 0.0
2018-May-11 10:30N 37°39' E 120°17'0 0.0
2018-May-11 10:00N 37°39' E 120°17'0 0.0
2018-May-11 09:30N 37°39' E 120°17'0 0.0
2018-May-11 09:00N 37°39' E 120°17'0 0.0
2018-May-11 08:27N 37°39' E 120°17'0 0.0
2018-May-11 08:00N 37°39' E 120°17'0 0.0
2018-May-11 07:27N 37°39' E 120°17'0 0.0
2018-May-11 07:00N 37°39' E 120°17'0 0.0
2018-May-11 06:30N 37°39' E 120°17'0 0.0
2018-May-11 05:54N 37°39' E 120°17'0 0.0
2018-May-11 05:30N 37°39' E 120°17'0 0.0
2018-May-11 05:00N 37°39' E 120°17'0 0.0
2018-May-11 04:30N 37°39' E 120°17'0 0.0
2018-May-11 04:00N 37°39' E 120°17'0 0.0
2018-May-11 03:30N 37°39' E 120°17'  
Track history (hours):
 
Tides and Currents Weather Stations Pressure Air Temp Water Temp Dewpoint Dewpoint Depression Visibility Wind Speed Wind Dir Waves Ship Positions

Bao Ning Ling

Last reported at 2018-May-21 03:25 UTC. Time now 2018-May-21 15:14 UTC.
Position N 37°30' E 122°43'.

Length 189 m; draft 11.1 m.

Type: Cargo ship. MMSI: 414778000.

Date/timePositionNaut miles runAvg speedWind from/ knotsBaromVisibWave heightAir tempDewpointWater temp
2018-May-21 03:25N 37°30' E 122°43'16 9.1
2018-May-21 01:41N 37°41' E 122°28'2 9.6
2018-May-21 01:30N 37°42' E 122°26'5 9.9
2018-May-21 01:00N 37°45' E 122°21'510.1
2018-May-21 00:30N 37°48' E 122°16'610.5
2018-May-20 23:56N 37°51' E 122°10'510.9
2018-May-20 23:30N 37°54' E 122°05'611.1
2018-May-20 22:59N 37°58' E 121°60'511.1
2018-May-20 22:30N 38°01' E 121°54'511.2
2018-May-20 22:00N 38°04' E 121°48'611.3
2018-May-20 21:30N 38°07' E 121°42'611.3
2018-May-20 21:00N 38°10' E 121°36'611.3
2018-May-20 20:30N 38°14' E 121°31'611.1
2018-May-20 20:00N 38°17' E 121°25'611.1
2018-May-20 19:30N 38°20' E 121°19'510.9
2018-May-20 19:00N 38°23' E 121°14'611.2
2018-May-20 18:30N 38°26' E 121°08'611.0
2018-May-20 18:00N 38°29' E 121°02'611.2
2018-May-20 17:30N 38°32' E 120°55'711.5
2018-May-20 16:55N 38°38' E 120°50'511.6
2018-May-20 16:30N 38°41' E 120°46'611.8
2018-May-20 15:59N 38°47' E 120°42'612.1
2018-May-20 15:28N 38°52' E 120°39'512.0
2018-May-20 15:00N 38°57' E 120°35'612.2
2018-May-20 14:29N 39°03' E 120°32'  
2018-May-13 12:08N 39°44' E 119°40'0 0.0
2018-May-13 11:53N 39°44' E 119°40'0 0.0
2018-May-13 11:25N 39°44' E 119°40'0 0.0
2018-May-13 10:59N 39°44' E 119°40'0 0.0
2018-May-13 10:17N 39°44' E 119°40'0 0.2
2018-May-13 09:59N 39°44' E 119°40'0 0.0
2018-May-13 08:53N 39°44' E 119°40'0 0.0
2018-May-13 08:26N 39°44' E 119°40'0 0.0
2018-May-13 07:56N 39°44' E 119°40'0 0.1
2018-May-13 07:26N 39°44' E 119°40'0 0.0
2018-May-13 06:56N 39°44' E 119°40'88 6.2
2018-May-12 16:48N 38°17' E 119°55'413.0
2018-May-12 16:29N 38°12' E 119°56'613.0
2018-May-12 16:00N 38°06' E 119°58'713.0
2018-May-12 15:28N 37°60' E 120°00'612.9
2018-May-12 14:59N 37°54' E 120°03'612.7
2018-May-12 14:30N 37°48' E 120°06'612.5
2018-May-12 14:00N 37°43' E 120°10'4 8.9
2018-May-12 13:30N 37°39' E 120°14'3 5.1
2018-May-12 13:01N 37°39' E 120°17'0 0.3
2018-May-12 12:30N 37°39' E 120°17'0 0.0
2018-May-12 12:00N 37°39' E 120°17'0 0.0
2018-May-12 11:30N 37°39' E 120°17'0 0.0
2018-May-12 11:00N 37°39' E 120°17'0 0.0
2018-May-12 10:27N 37°39' E 120°17'0 0.0
2018-May-12 10:00N 37°39' E 120°17'0 0.0
2018-May-12 09:30N 37°39' E 120°17'0 0.0
2018-May-12 08:57N 37°39' E 120°17'0 0.0
2018-May-12 08:30N 37°39' E 120°17'0 0.0
2018-May-12 07:57N 37°39' E 120°17'0 0.0
2018-May-12 07:30N 37°39' E 120°17'0 0.0
2018-May-12 07:00N 37°39' E 120°17'0 0.0
2018-May-12 06:27N 37°39' E 120°17'0 0.0
2018-May-12 05:54N 37°39' E 120°17'0 0.0
2018-May-12 05:21N 37°39' E 120°17'0 0.0
2018-May-12 05:00N 37°39' E 120°17'0 0.0
2018-May-12 04:30N 37°39' E 120°17'0 0.0
2018-May-12 04:00N 37°39' E 120°17'0 0.0
2018-May-12 03:24N 37°39' E 120°17'0 0.0
2018-May-12 02:57N 37°39' E 120°17'0 0.0
2018-May-12 02:21N 37°39' E 120°17'0 0.0
2018-May-12 02:00N 37°39' E 120°17'0 0.0
2018-May-12 01:30N 37°39' E 120°17'0 0.0
2018-May-12 01:00N 37°39' E 120°17'0 0.0
2018-May-12 00:30N 37°39' E 120°17'0 0.0
2018-May-11 23:57N 37°39' E 120°17'0 0.0
2018-May-11 23:27N 37°39' E 120°17'0 0.0
2018-May-11 22:57N 37°39' E 120°17'0 0.0
2018-May-11 22:30N 37°39' E 120°17'0 0.0
2018-May-11 22:00N 37°39' E 120°17'0 0.0
2018-May-11 21:30N 37°39' E 120°17'0 0.0
2018-May-11 21:00N 37°39' E 120°17'0 0.0
2018-May-11 20:30N 37°39' E 120°17'0 0.0
2018-May-11 20:00N 37°39' E 120°17'0 0.0
2018-May-11 19:30N 37°39' E 120°17'0 0.0
2018-May-11 19:00N 37°39' E 120°17'0 0.0
2018-May-11 18:30N 37°39' E 120°17'0 0.0
2018-May-11 18:00N 37°39' E 120°17'0 0.0
2018-May-11 17:30N 37°39' E 120°17'0 0.0
2018-May-11 17:00N 37°39' E 120°17'0 0.0
2018-May-11 16:30N 37°39' E 120°17'0 0.0
2018-May-11 15:57N 37°39' E 120°17'0 0.0
2018-May-11 15:24N 37°39' E 120°17'0 0.0
2018-May-11 15:00N 37°39' E 120°17'0 0.0
2018-May-11 14:30N 37°39' E 120°17'0 0.0
2018-May-11 13:57N 37°39' E 120°17'0 0.0
2018-May-11 13:30N 37°39' E 120°17'0 0.0
2018-May-11 13:00N 37°39' E 120°17'0 0.0
2018-May-11 12:27N 37°39' E 120°17'0 0.0
2018-May-11 12:00N 37°39' E 120°17'0 0.0
2018-May-11 11:30N 37°39' E 120°17'0 0.0
2018-May-11 11:00N 37°39' E 120°17'0 0.0
2018-May-11 10:30N 37°39' E 120°17'0 0.0
2018-May-11 10:00N 37°39' E 120°17'0 0.0
2018-May-11 09:30N 37°39' E 120°17'0 0.0
2018-May-11 09:00N 37°39' E 120°17'0 0.0
2018-May-11 08:27N 37°39' E 120°17'0 0.0
2018-May-11 08:00N 37°39' E 120°17'0 0.0
2018-May-11 07:27N 37°39' E 120°17'0 0.0
2018-May-11 07:00N 37°39' E 120°17'0 0.0
2018-May-11 06:30N 37°39' E 120°17'0 0.0
2018-May-11 05:54N 37°39' E 120°17'0 0.0
2018-May-11 05:30N 37°39' E 120°17'0 0.0
2018-May-11 05:00N 37°39' E 120°17'0 0.0
2018-May-11 04:30N 37°39' E 120°17'0 0.0
2018-May-11 04:00N 37°39' E 120°17'0 0.0
2018-May-11 03:30N 37°39' E 120°17'  

Dump ship's entire track history